createdAt,value
2022-09-23T00:02:16.165Z,101828.78
2022-09-23T00:04:48.144Z,101831.47
2022-09-23T00:07:17.962Z,101830.94
2022-09-23T00:09:47.345Z,101833.31
2022-09-23T00:12:18.098Z,101822.63
2022-09-23T00:14:47.470Z,101818.84
2022-09-23T00:17:16.842Z,101818.53
2022-09-23T00:19:49.235Z,101815.28
2022-09-23T00:22:19.025Z,101814.19
2022-09-23T00:24:48.412Z,101818.34
2022-09-23T00:27:21.034Z,101815.28
2022-09-23T00:29:50.714Z,101812.28
2022-09-23T00:32:20.088Z,101803.78
2022-09-23T00:34:52.501Z,101808.97
2022-09-23T00:37:22.038Z,101811.06
2022-09-23T00:39:51.473Z,101802.56
2022-09-23T00:42:23.013Z,101804.50
2022-09-23T00:44:54.400Z,101799.34
2022-09-23T00:47:25.977Z,101804.09
2022-09-23T00:50:05.472Z,101807.22
2022-09-23T00:52:35.177Z,101813.16
2022-09-23T00:55:07.960Z,101808.91
2022-09-23T00:57:38.270Z,101805.75
2022-09-23T01:00:10.706Z,101806.25
2022-09-23T01:02:40.286Z,101797.75
2022-09-23T01:05:12.823Z,101792.34
2022-09-23T01:07:42.242Z,101800.31
2022-09-23T01:10:13.546Z,101799.41
2022-09-23T01:12:56.289Z,101785.63
2022-09-23T01:15:29.381Z,101792.13
2022-09-23T01:18:05.389Z,101794.69
2022-09-23T01:20:48.852Z,101798.41
2022-09-23T01:23:38.670Z,101797.69
2022-09-23T01:26:21.232Z,101794.22
2022-09-23T01:29:25.658Z,101803.25
2022-09-23T01:32:02.952Z,101804.25
2022-09-23T01:34:38.128Z,101804.00
2022-09-23T01:37:11.886Z,101806.00
2022-09-23T01:39:45.126Z,101799.16
2022-09-23T01:42:19.987Z,101800.50
2022-09-23T01:44:53.800Z,101798.84
2022-09-23T01:47:31.369Z,101796.09
2022-09-23T01:50:03.706Z,101797.31
2022-09-23T01:52:35.413Z,101800.69
2022-09-23T01:55:11.080Z,101805.03
2022-09-23T01:57:43.385Z,101795.06
2022-09-23T02:00:16.507Z,101798.88
2022-09-23T02:02:51.944Z,101791.50
2022-09-23T02:05:25.224Z,101798.88
2022-09-23T02:07:59.458Z,101792.44
2022-09-23T02:10:33.166Z,101796.66
2022-09-23T02:13:06.323Z,101802.72
2022-09-23T02:15:38.374Z,101790.22
2022-09-23T02:18:12.770Z,101784.50
2022-09-23T02:20:42.346Z,101785.63
2022-09-23T02:23:14.853Z,101780.63
2022-09-23T02:25:53.153Z,101782.22
2022-09-23T02:28:27.550Z,101778.75
2022-09-23T02:31:02.989Z,101778.22
2022-09-23T02:33:39.321Z,101768.75
2022-09-23T02:36:12.794Z,101769.16
2022-09-23T02:38:44.598Z,101766.41
2022-09-23T02:41:17.749Z,101758.91
2022-09-23T02:43:50.779Z,101752.06
2022-09-23T02:46:20.678Z,101756.22
2022-09-23T02:48:56.723Z,101755.41
2022-09-23T02:51:28.001Z,101758.53
2022-09-23T02:53:58.524Z,101754.75
2022-09-23T02:56:28.738Z,101749.97
2022-09-23T02:58:58.489Z,101751.66
2022-09-23T03:01:34.932Z,101743.66
2022-09-23T03:04:14.848Z,101742.28
2022-09-23T03:06:52.463Z,101737.38
2022-09-23T03:09:25.950Z,101727.06
2022-09-23T03:12:00.614Z,101741.16
2022-09-23T03:14:36.113Z,101744.41
2022-09-23T03:17:07.441Z,101730.91
2022-09-23T03:19:45.775Z,101732.69
2022-09-23T03:22:18.526Z,101731.13
2022-09-23T03:24:53.159Z,101725.56
2022-09-23T03:27:25.682Z,101717.28
2022-09-23T03:29:56.425Z,101709.88
2022-09-23T03:32:28.012Z,101709.34
2022-09-23T03:35:02.018Z,101709.50
2022-09-23T03:37:35.769Z,101708.09
2022-09-23T03:40:10.143Z,101699.84
2022-09-23T03:42:40.431Z,101695.50
2022-09-23T03:45:13.061Z,101683.66
2022-09-23T03:47:42.486Z,101681.09
2022-09-23T03:50:17.275Z,101676.44
2022-09-23T03:52:47.530Z,101681.75
2022-09-23T03:55:17.110Z,101676.59
2022-09-23T03:57:47.168Z,101668.28
2022-09-23T04:00:18.211Z,101672.09
2022-09-23T04:02:48.249Z,101648.06
2022-09-23T04:05:20.977Z,101648.75
2022-09-23T04:07:51.147Z,101652.53
2022-09-23T04:10:20.797Z,101672.94
2022-09-23T04:12:50.210Z,101677.56
2022-09-23T04:15:19.793Z,101672.25
2022-09-23T04:17:49.165Z,101677.25
2022-09-23T04:20:21.348Z,101691.19
2022-09-23T04:22:50.726Z,101690.63
2022-09-23T04:25:20.497Z,101694.69
2022-09-23T04:27:50.038Z,101705.59
2022-09-23T04:30:19.654Z,101703.13
2022-09-23T04:32:49.050Z,101692.56
2022-09-23T04:35:21.041Z,101692.75
2022-09-23T04:37:50.946Z,101692.28
2022-09-23T04:40:20.495Z,101690.13
2022-09-23T04:42:50.382Z,101691.31
2022-09-23T04:45:19.740Z,101680.94
2022-09-23T04:47:49.142Z,101676.69
2022-09-23T04:50:21.226Z,101674.16
2022-09-23T04:52:50.714Z,101669.56
2022-09-23T04:55:20.479Z,101666.44
2022-09-23T04:57:49.891Z,101660.69
2022-09-23T05:00:19.902Z,101649.00
2022-09-23T05:02:50.722Z,101638.97
2022-09-23T05:05:23.694Z,101631.41
2022-09-23T05:07:53.262Z,101611.91
2022-09-23T05:10:22.649Z,101568.56
2022-09-23T05:12:56.414Z,101555.72
2022-09-23T05:15:26.721Z,101545.25
2022-09-23T05:17:56.105Z,101534.75
2022-09-23T05:20:28.701Z,101529.44
2022-09-23T05:22:58.346Z,101515.69
2022-09-23T05:25:27.746Z,101510.97
2022-09-23T05:27:57.155Z,101496.69
2022-09-23T05:30:26.583Z,101489.75
2022-09-23T05:32:56.644Z,101481.84
2022-09-23T05:35:28.598Z,101482.94
2022-09-23T05:37:57.980Z,101482.84
2022-09-23T05:40:27.419Z,101481.06
2022-09-23T05:42:57.221Z,101481.84
2022-09-23T05:45:27.044Z,101482.44
2022-09-23T05:47:56.453Z,101481.84
2022-09-23T05:50:28.417Z,101484.13
2022-09-23T05:52:57.806Z,101476.72
2022-09-23T05:55:27.197Z,101476.38
2022-09-23T05:57:56.604Z,101485.19
2022-09-23T06:00:26.045Z,101481.25
2022-09-23T06:02:55.525Z,101478.47
2022-09-23T06:05:24.943Z,101479.06
2022-09-23T06:07:57.489Z,101481.81
2022-09-23T06:10:29.986Z,101480.66
2022-09-23T06:12:59.465Z,101487.84
2022-09-23T06:15:28.818Z,101492.19
2022-09-23T06:17:58.258Z,101487.16
2022-09-23T06:20:27.778Z,101489.13
2022-09-23T06:23:09.222Z,101491.59
2022-09-23T06:25:41.062Z,101496.03
2022-09-23T06:28:12.553Z,101498.59
2022-09-23T06:30:42.564Z,101508.69
2022-09-23T06:33:11.957Z,101510.47
2022-09-23T06:35:43.501Z,101504.34
2022-09-23T06:38:16.846Z,101504.09
2022-09-23T06:40:47.219Z,101506.75
2022-09-23T06:43:16.638Z,101500.72
2022-09-23T06:45:46.051Z,101502.19
2022-09-23T06:48:15.478Z,101503.88
2022-09-23T06:50:44.890Z,101495.38
2022-09-23T06:53:16.854Z,101499.81
2022-09-23T06:55:46.743Z,101492.88
2022-09-23T06:58:16.126Z,101497.81
2022-09-23T07:00:45.513Z,101491.09
2022-09-23T07:03:14.886Z,101502.16
2022-09-23T07:05:44.289Z,101503.56
2022-09-23T07:08:16.480Z,101505.09
2022-09-23T07:10:45.850Z,101510.03
2022-09-23T07:13:16.378Z,101517.00
2022-09-23T07:15:45.918Z,101519.25
2022-09-23T07:18:15.318Z,101525.84
2022-09-23T07:20:44.693Z,101524.44
2022-09-23T07:23:17.597Z,101525.56
2022-09-23T07:25:47.025Z,101527.44
2022-09-23T07:28:16.435Z,101534.63
2022-09-23T07:30:58.571Z,101531.59
2022-09-23T07:33:33.317Z,101535.72
2022-09-23T07:36:07.132Z,101540.00
2022-09-23T07:38:44.908Z,101536.00
2022-09-23T07:41:16.218Z,101552.28
2022-09-23T07:43:46.189Z,101546.22
2022-09-23T07:46:17.861Z,101547.63
2022-09-23T07:48:47.917Z,101548.16
2022-09-23T07:51:21.813Z,101540.13
2022-09-23T07:53:54.714Z,101538.56
2022-09-23T07:56:27.101Z,101531.31
2022-09-23T07:59:03.875Z,101525.63
2022-09-23T08:01:34.883Z,101461.63
2022-09-23T08:04:06.761Z,101445.44
2022-09-23T08:06:36.813Z,101428.88
2022-09-23T08:09:09.389Z,101412.81
2022-09-23T08:11:41.831Z,101409.97
2022-09-23T08:14:11.449Z,101397.38
2022-09-23T08:16:40.818Z,101395.38
2022-09-23T08:19:10.260Z,101379.16
2022-09-23T08:21:40.388Z,101369.19
2022-09-23T08:24:16.118Z,101368.09
2022-09-23T08:26:45.660Z,101355.28
2022-09-23T08:29:16.070Z,101345.28
2022-09-23T08:31:45.684Z,101330.91
2022-09-23T08:34:15.170Z,101306.31
2022-09-23T08:36:44.698Z,101201.75
2022-09-23T08:39:20.300Z,101153.72
2022-09-23T08:42:00.940Z,101100.47
2022-09-23T08:44:34.600Z,101057.06
2022-09-23T08:47:12.073Z,101022.78
2022-09-23T08:49:44.109Z,101028.59
2022-09-23T08:52:17.789Z,101004.19
2022-09-23T08:54:54.546Z,100992.69
2022-09-23T08:57:39.428Z,100983.19
2022-09-23T09:00:10.135Z,100842.66
2022-09-23T09:02:39.568Z,100828.19
2022-09-23T09:05:11.081Z,100777.22
2022-09-23T09:07:43.097Z,100752.72
2022-09-23T09:10:19.797Z,100725.31
2022-09-23T09:12:50.657Z,100706.44
2022-09-23T09:15:24.702Z,100712.13
2022-09-23T09:18:01.359Z,100710.50
2022-09-23T09:20:36.412Z,100719.78
2022-09-23T09:23:11.717Z,100727.53
2022-09-23T09:25:46.943Z,100727.41
2022-09-23T09:28:19.309Z,100714.63
2022-09-23T09:30:53.045Z,100715.38
2022-09-23T09:33:27.638Z,100729.91
2022-09-23T09:36:10.197Z,100715.84
2022-09-23T09:38:39.782Z,100731.13
2022-09-23T09:41:18.277Z,100734.09
2022-09-23T09:43:57.680Z,100748.59
2022-09-23T09:46:38.762Z,100752.31
2022-09-23T09:49:13.766Z,100742.31
2022-09-23T09:51:43.285Z,100749.78
2022-09-23T09:54:20.514Z,100756.09
2022-09-23T09:56:52.669Z,100760.03
2022-09-23T09:59:27.244Z,100790.16
2022-09-23T10:02:14.905Z,100778.72
2022-09-23T10:04:44.356Z,100795.50
2022-09-23T10:07:16.015Z,100807.44
2022-09-23T10:09:51.793Z,100826.97
2022-09-23T10:12:24.809Z,100828.41
2022-09-23T10:14:58.286Z,100813.84
2022-09-23T10:17:35.402Z,100830.22
2022-09-23T10:20:10.059Z,100827.13
2022-09-23T10:22:42.848Z,100820.66
2022-09-23T10:25:19.163Z,100831.16
2022-09-23T10:27:51.170Z,100813.50
2022-09-23T10:30:25.434Z,100799.75
2022-09-23T10:32:56.875Z,100782.13
2022-09-23T10:35:28.270Z,100834.03
2022-09-23T10:37:58.682Z,100856.22
2022-09-23T10:40:45.849Z,100848.56
2022-09-23T10:43:40.491Z,100830.56
2022-09-23T10:46:24.135Z,100810.25
2022-09-23T10:49:08.975Z,100817.22
2022-09-23T10:51:45.356Z,100813.72
2022-09-23T10:54:19.470Z,100805.97
2022-09-23T10:56:51.283Z,100795.94
2022-09-23T10:59:48.289Z,100807.22
2022-09-23T11:02:34.501Z,100789.88
2022-09-23T11:05:33.563Z,100788.13
2022-09-23T11:08:12.540Z,100812.38
2022-09-23T11:11:04.386Z,100803.00
2022-09-23T11:13:52.124Z,100819.47
2022-09-23T11:16:39.102Z,100867.81
2022-09-23T11:19:18.477Z,100869.78
2022-09-23T11:21:58.363Z,100885.22
2022-09-23T11:24:52.092Z,100869.59
2022-09-23T11:27:32.901Z,100810.00
2022-09-23T11:30:09.031Z,100843.72
2022-09-23T11:33:14.121Z,100862.66
2022-09-23T11:35:47.738Z,100842.16
2022-09-23T11:38:26.220Z,100808.19
2022-09-23T11:40:58.483Z,100771.84
2022-09-23T11:43:29.299Z,100829.78
2022-09-23T11:46:01.289Z,100861.13
2022-09-23T11:48:39.822Z,100864.66
2022-09-23T11:51:13.767Z,100915.94
2022-09-23T11:53:47.587Z,100904.00
2022-09-23T11:56:32.808Z,100924.91
2022-09-23T11:59:10.207Z,100922.53
2022-09-23T12:01:45.777Z,100896.81
2022-09-23T12:04:22.459Z,100907.47
2022-09-23T12:06:55.931Z,100980.88
2022-09-23T12:09:53.883Z,100959.16
2022-09-23T12:12:25.041Z,101030.28
2022-09-23T12:15:00.523Z,101048.63
2022-09-23T12:17:59.799Z,101019.81
2022-09-23T12:20:43.103Z,101014.03
2022-09-23T12:23:26.634Z,101102.53
2022-09-23T12:25:58.009Z,101158.06
2022-09-23T12:28:31.182Z,101142.78
2022-09-23T12:31:02.326Z,101203.72
2022-09-23T12:33:33.107Z,101253.22
2022-09-23T12:36:09.230Z,101338.75
2022-09-23T12:38:40.890Z,101304.97
2022-09-23T12:41:29.443Z,101317.66
2022-09-23T12:44:02.773Z,101283.03
2022-09-23T12:46:32.212Z,101329.06
2022-09-23T12:49:06.638Z,101407.84
2022-09-23T12:51:40.293Z,101445.09
2022-09-23T12:54:25.952Z,101433.00
2022-09-23T12:57:02.853Z,101443.41
2022-09-23T12:59:57.319Z,101487.50
2022-09-23T13:02:30.408Z,101430.22
2022-09-23T13:05:18.011Z,101436.38
2022-09-23T13:07:51.833Z,101469.47
2022-09-23T13:10:28.175Z,101474.31
2022-09-23T13:12:58.187Z,101446.88
2022-09-23T13:15:33.090Z,101483.56
2022-09-23T13:18:27.354Z,101483.47
2022-09-23T13:20:58.202Z,101501.72
2022-09-23T13:23:31.347Z,101528.09
2022-09-23T13:26:03.263Z,101506.38
2022-09-23T13:28:36.929Z,101471.66
2022-09-23T13:31:07.902Z,101442.13
2022-09-23T13:33:42.581Z,101433.44
2022-09-23T13:36:15.164Z,101441.19
2022-09-23T13:38:47.347Z,101541.56
2022-09-23T13:41:18.458Z,101522.81
2022-09-23T13:43:50.528Z,101542.06
2022-09-23T13:46:22.071Z,101553.19
2022-09-23T13:48:54.633Z,101525.47
2022-09-23T13:51:26.253Z,101466.34
2022-09-23T13:53:59.686Z,101522.81
2022-09-23T13:56:30.672Z,101521.84
2022-09-23T13:59:19.041Z,101480.78
2022-09-23T14:01:48.694Z,101508.41
2022-09-23T14:04:25.968Z,101441.66
2022-09-23T14:06:55.510Z,101498.53
2022-09-23T14:09:30.035Z,101478.84
2022-09-23T14:12:01.576Z,101477.25
2022-09-23T14:14:31.570Z,101477.25
2022-09-23T14:17:02.629Z,101456.41
2022-09-23T14:19:32.066Z,101512.69
2022-09-23T14:22:01.593Z,101460.81
2022-09-23T14:24:37.049Z,101525.72
2022-09-23T14:27:13.668Z,101540.44
2022-09-23T14:29:44.156Z,101499.84
2022-09-23T14:32:16.405Z,101498.03
2022-09-23T14:34:48.395Z,101517.13
2022-09-23T14:37:40.535Z,101510.09
2022-09-23T14:40:17.274Z,101488.38
2022-09-23T14:42:48.857Z,101426.75
2022-09-23T14:45:20.837Z,101415.44
2022-09-23T14:47:51.726Z,101434.41
2022-09-23T14:50:36.208Z,101462.19
2022-09-23T14:53:05.953Z,101422.22
2022-09-23T14:55:38.230Z,101501.03
2022-09-23T14:58:09.114Z,101517.63
2022-09-23T15:00:38.626Z,101503.69
2022-09-23T15:03:17.033Z,101493.22
2022-09-23T15:05:49.094Z,101497.44
2022-09-23T15:08:21.438Z,101542.25
2022-09-23T15:10:53.695Z,101543.09
2022-09-23T15:13:26.642Z,101533.53
2022-09-23T15:15:56.876Z,101510.09
2022-09-23T15:18:27.965Z,101495.31
2022-09-23T15:21:00.761Z,101496.69
2022-09-23T15:23:38.207Z,101486.22
2022-09-23T15:26:13.986Z,101472.25
2022-09-23T15:28:43.481Z,101407.94
2022-09-23T15:31:15.971Z,101460.72
2022-09-23T15:33:47.620Z,101466.63
2022-09-23T15:36:19.896Z,101452.69
2022-09-23T15:38:49.649Z,101454.41
2022-09-23T15:41:24.102Z,101478.63
2022-09-23T15:43:55.605Z,101475.06
2022-09-23T15:46:28.216Z,101494.13
2022-09-23T15:49:07.873Z,101468.91
2022-09-23T15:51:38.279Z,101460.16
2022-09-23T15:54:08.791Z,101438.47
2022-09-23T15:56:40.799Z,101457.44
2022-09-23T15:59:10.174Z,101453.94
2022-09-23T16:01:40.150Z,101442.56
2022-09-23T16:04:09.892Z,101457.19
2022-09-23T16:06:39.690Z,101419.72
2022-09-23T16:09:10.487Z,101387.50
2022-09-23T16:11:44.334Z,101378.78
2022-09-23T16:14:16.053Z,101376.03
2022-09-23T16:16:47.805Z,101368.06
2022-09-23T16:19:17.929Z,101388.84
2022-09-23T16:21:47.403Z,101369.59
2022-09-23T16:24:19.698Z,101378.25
2022-09-23T16:26:52.946Z,101372.06
2022-09-23T16:29:22.338Z,101352.06
2022-09-23T16:31:51.769Z,101336.34
2022-09-23T16:34:21.335Z,101335.41
2022-09-23T16:36:50.908Z,101322.31
2022-09-23T16:39:21.977Z,101323.06
2022-09-23T16:41:53.952Z,101308.19
2022-09-23T16:44:23.366Z,101293.38
2022-09-23T16:46:52.753Z,101272.53
2022-09-23T16:49:22.174Z,101261.16
2022-09-23T16:51:51.544Z,101254.16
2022-09-23T16:54:22.842Z,101267.06
2022-09-23T16:56:55.129Z,101263.50
2022-09-23T16:59:44.557Z,101253.78
2022-09-23T17:02:26.835Z,101229.41
2022-09-23T17:04:56.293Z,101220.66
2022-09-23T17:07:26.218Z,101221.41
2022-09-23T17:09:55.765Z,101216.00
2022-09-23T17:12:29.882Z,101215.97
2022-09-23T17:14:59.274Z,101215.94
2022-09-23T17:17:28.656Z,101200.22
2022-09-23T17:19:58.034Z,101188.88
2022-09-23T17:22:27.426Z,101195.78
2022-09-23T17:24:57.950Z,101184.44
2022-09-23T17:27:29.986Z,101180.06
2022-09-23T17:29:59.418Z,101178.19
2022-09-23T17:32:29.373Z,101148.81
2022-09-23T17:35:04.489Z,101159.97
2022-09-23T17:37:34.839Z,101147.78
2022-09-23T17:40:04.779Z,101134.78
2022-09-23T17:42:36.917Z,101125.97
2022-09-23T17:45:06.771Z,101132.00
2022-09-23T17:47:39.519Z,101014.69
2022-09-23T17:50:11.291Z,101047.41
2022-09-23T17:52:40.651Z,101063.59
2022-09-23T17:55:11.859Z,100989.22
2022-09-23T17:57:43.826Z,100978.78
2022-09-23T18:00:14.909Z,100981.22
2022-09-23T18:02:44.272Z,100924.13
2022-09-23T18:05:13.638Z,100928.16
2022-09-23T18:07:43.072Z,100872.94
2022-09-23T18:10:12.883Z,100766.47
2022-09-23T18:12:44.859Z,100793.06
2022-09-23T18:15:16.966Z,100820.69
2022-09-23T18:17:49.374Z,100758.25
2022-09-23T18:20:18.914Z,100785.88
2022-09-23T18:22:48.322Z,100818.66
2022-09-23T18:25:38.135Z,100899.72
2022-09-23T18:28:09.756Z,100919.38
2022-09-23T18:30:40.155Z,100888.13
2022-09-23T18:33:09.544Z,100888.19
2022-09-23T18:35:38.923Z,100848.44
2022-09-23T18:38:08.290Z,100856.03
2022-09-23T18:40:37.756Z,100868.06
2022-09-23T18:43:09.812Z,100904.34
2022-09-23T18:45:39.244Z,100890.47
2022-09-23T18:48:21.166Z,100874.91
2022-09-23T18:50:51.658Z,100871.41
2022-09-23T18:53:21.047Z,100841.94
2022-09-23T18:55:50.421Z,100846.16
2022-09-23T18:58:22.473Z,100852.19
2022-09-23T19:00:52.863Z,100871.22
2022-09-23T19:03:22.446Z,100845.22
2022-09-23T19:05:51.845Z,100846.03
2022-09-23T19:08:21.233Z,100834.72
2022-09-23T19:10:58.074Z,100813.94
2022-09-23T19:13:30.330Z,100798.44
2022-09-23T19:16:04.152Z,100787.19
2022-09-23T19:18:33.806Z,100762.16
2022-09-23T19:21:06.927Z,100719.72
2022-09-23T19:23:37.210Z,100715.38
2022-09-23T19:26:08.803Z,100705.84
2022-09-23T19:28:41.362Z,100697.16
2022-09-23T19:31:16.869Z,100693.69
2022-09-23T19:33:50.322Z,100685.03
2022-09-23T19:36:20.115Z,100664.25
2022-09-23T19:38:49.490Z,100663.38
2022-09-23T19:41:20.062Z,100649.50
2022-09-23T19:43:55.026Z,100629.50
2022-09-23T19:46:24.526Z,100613.13
2022-09-23T19:48:54.181Z,100594.06
2022-09-23T19:51:23.673Z,100578.41
2022-09-23T19:53:53.146Z,100563.66
2022-09-23T19:56:22.811Z,100550.59
2022-09-23T19:58:55.719Z,100530.66
2022-09-23T20:01:25.646Z,100527.22
2022-09-23T20:03:56.693Z,100519.38
2022-09-23T20:06:26.273Z,100507.28
2022-09-23T20:08:57.462Z,100499.50
2022-09-23T20:11:28.632Z,100493.41
2022-09-23T20:14:03.948Z,100491.69
2022-09-23T20:16:35.278Z,100495.13
2022-09-23T20:19:05.639Z,100478.69
2022-09-23T20:21:35.447Z,100474.28
2022-09-23T20:24:07.641Z,100454.34
2022-09-23T20:26:49.695Z,100431.84
2022-09-23T20:29:21.678Z,100431.78
2022-09-23T20:31:51.163Z,100420.56
2022-09-23T20:34:21.332Z,100420.56
2022-09-23T20:36:50.733Z,100411.00
2022-09-23T20:39:20.238Z,100411.84
2022-09-23T20:41:49.706Z,100408.41
2022-09-23T20:44:21.754Z,100404.88
2022-09-23T20:46:51.372Z,100390.94
2022-09-23T20:49:21.106Z,100374.53
2022-09-23T20:51:50.732Z,100366.59
2022-09-23T20:54:20.957Z,100344.16
2022-09-23T20:56:50.547Z,100334.47
2022-09-23T20:59:22.561Z,100319.69
2022-09-23T21:01:55.502Z,100317.09
2022-09-23T21:04:25.192Z,100309.22
2022-09-23T21:06:55.894Z,100307.50
2022-09-23T21:09:27.058Z,100276.44
2022-09-23T21:11:56.441Z,100266.00
2022-09-23T21:14:28.418Z,100265.91
2022-09-23T21:16:57.806Z,100252.28
2022-09-23T21:19:27.975Z,100232.69
2022-09-23T21:21:57.714Z,100230.25
2022-09-23T21:27:18.193Z,100231.88
2022-09-23T21:29:50.175Z,100227.53
2022-09-23T21:32:19.534Z,100222.00
2022-09-23T21:34:48.925Z,100242.75
2022-09-23T21:37:18.297Z,100257.44
2022-09-23T21:40:08.414Z,100266.59
2022-09-23T21:42:37.938Z,100239.38
2022-09-23T21:45:10.782Z,100237.97
2022-09-23T21:47:40.165Z,100235.16
2022-09-23T21:50:11.982Z,100253.94
2022-09-23T21:52:41.789Z,100249.47
2022-09-23T21:55:11.256Z,100243.91
2022-09-23T21:57:40.687Z,100227.97
2022-09-23T22:00:14.718Z,100231.28
2022-09-23T22:02:44.150Z,100230.91
2022-09-23T22:05:13.554Z,100218.06
2022-09-23T22:07:43.045Z,100214.84
2022-09-23T22:10:12.926Z,100210.41
2022-09-23T22:12:42.314Z,100209.00
2022-09-23T22:15:14.567Z,100212.22
2022-09-23T22:17:44.034Z,100213.69
2022-09-23T22:20:13.499Z,100209.69
2022-09-23T22:22:42.870Z,100209.78
2022-09-23T22:25:12.722Z,100214.69
2022-09-23T22:28:02.791Z,100221.59
2022-09-23T22:30:47.261Z,100213.06
2022-09-23T22:33:17.745Z,100222.50
2022-09-23T22:35:48.063Z,100222.25
2022-09-23T22:38:17.455Z,100230.03
2022-09-23T22:40:46.871Z,100219.19
2022-09-23T22:43:16.583Z,100221.59
2022-09-23T22:45:54.191Z,100217.38
2022-09-23T22:48:23.567Z,100214.91
2022-09-23T22:50:52.953Z,100223.09
2022-09-23T22:53:22.817Z,100228.09
2022-09-23T22:56:01.103Z,100248.78
2022-09-23T22:58:32.596Z,100256.38
2022-09-23T23:01:05.498Z,100312.16
2022-09-23T23:03:35.783Z,100332.97
2022-09-23T23:06:05.743Z,100328.72
2022-09-23T23:08:35.456Z,100326.81
2022-09-23T23:11:07.233Z,100345.13
2022-09-23T23:13:36.782Z,100329.22
2022-09-23T23:16:11.682Z,100334.28
2022-09-23T23:18:43.290Z,100343.84
2022-09-23T23:21:14.831Z,100337.75
2022-09-23T23:23:46.011Z,100353.06
2022-09-23T23:26:17.096Z,100350.88
2022-09-23T23:28:47.390Z,100348.34
2022-09-23T23:31:21.026Z,100349.13
2022-09-23T23:33:50.907Z,100359.00
2022-09-23T23:36:21.912Z,100345.97
2022-09-23T23:38:52.494Z,100343.56
2022-09-23T23:41:23.491Z,100357.59
2022-09-23T23:43:57.916Z,100369.78
2022-09-23T23:46:31.703Z,100376.69
2022-09-23T23:49:01.712Z,100395.56
2022-09-23T23:51:31.529Z,100377.91
2022-09-23T23:54:01.801Z,100383.00
2022-09-23T23:56:33.207Z,100395.22
2022-09-23T23:59:05.000Z,100396.19
